Time;durP1;ratioP1;P1;durP2;ratioP2;P2;SDS_P1;SDS_P2;PMS_P1;PMS_P2;Temp;Humidity;BMP_temperature;BMP_pressure;BME280_temperature;BME280_humidity;BME280_pressure;Samples;Min_cycle;Max_cycle;Signal;HPM_P1;HPM_P2
2023/09/27 00:02:15;;;;;;;37.00;19.90;;;;;;;15.72;100.00;94978.31;5034586;28;20079;-81
2023/09/27 00:04:41;;;;;;;32.58;18.65;;;;;;;15.76;100.00;94982.75;5034559;28;20083;-81
2023/09/27 00:07:06;;;;;;;37.22;20.10;;;;;;;15.74;100.00;94978.81;5035209;28;20037;-81
2023/09/27 00:09:32;;;;;;;35.20;19.70;;;;;;;15.75;100.00;94983.03;5051204;28;20079;-81
2023/09/27 00:11:58;;;;;;;38.80;19.17;;;;;;;15.67;100.00;94973.88;5034633;28;20082;-81
2023/09/27 00:14:24;;;;;;;34.15;19.70;;;;;;;15.66;100.00;94983.69;5050925;28;20030;-81
2023/09/27 00:16:49;;;;;;;34.85;20.40;;;;;;;15.64;100.00;94985.03;5033846;28;20025;-81
2023/09/27 00:19:15;;;;;;;42.47;20.20;;;;;;;15.61;100.00;94975.81;5050616;28;20051;-81
2023/09/27 00:21:41;;;;;;;37.38;20.75;;;;;;;15.56;100.00;94983.81;5050918;28;20183;-81
2023/09/27 00:24:07;;;;;;;43.17;20.60;;;;;;;15.58;100.00;94984.31;5050700;28;20456;-81
2023/09/27 00:26:32;;;;;;;37.72;20.90;;;;;;;15.57;100.00;94985.38;5035441;28;20099;-81
2023/09/27 00:28:58;;;;;;;33.97;20.45;;;;;;;15.55;100.00;94976.97;5050221;28;20033;-81
2023/09/27 00:31:23;;;;;;;38.13;19.52;;;;;;;15.59;100.00;94977.94;5035624;28;20052;-81
2023/09/27 00:33:49;;;;;;;38.97;20.63;;;;;;;15.63;100.00;94967.59;5035269;28;20457;-81
2023/09/27 00:36:16;;;;;;;45.63;21.60;;;;;;;15.60;100.00;94965.53;5050309;28;20021;-81
2023/09/27 00:38:41;;;;;;;42.58;21.08;;;;;;;15.51;100.00;94968.03;5033543;28;20029;-81
2023/09/27 00:41:07;;;;;;;41.22;19.90;;;;;;;15.49;100.00;94973.59;5050632;28;20040;-81
2023/09/27 00:43:33;;;;;;;37.85;20.42;;;;;;;15.59;100.00;94967.38;5034568;28;20131;-81
2023/09/27 00:46:06;;;;;;;36.95;19.52;;;;;;;15.60;100.00;94973.47;5034984;28;20124;-81
2023/09/27 00:48:34;;;;;;;42.63;22.00;;;;;;;15.59;100.00;94969.25;5049792;28;20041;-81
2023/09/27 00:51:00;;;;;;;42.17;21.52;;;;;;;15.59;100.00;94969.25;5050483;28;20033;-81
2023/09/27 00:53:28;;;;;;;36.88;20.13;;;;;;;15.61;100.00;94964.47;5033831;28;20124;-81
2023/09/27 00:55:55;;;;;;;36.58;19.88;;;;;;;15.52;100.00;94966.97;5050327;28;20037;-81
2023/09/27 00:58:20;;;;;;;38.75;20.65;;;;;;;15.58;100.00;94970.31;5049788;28;20037;-81
2023/09/27 01:00:49;;;;;;;38.47;20.77;;;;;;;15.52;100.00;94966.97;5050113;28;20316;-81
2023/09/27 01:03:14;;;;;;;39.58;21.20;;;;;;;15.40;100.00;94972.63;5033557;28;20079;-81
2023/09/27 01:05:41;;;;;;;38.78;20.42;;;;;;;15.40;100.00;94968.16;5050010;28;20037;-81
2023/09/27 01:08:07;;;;;;;36.88;19.50;;;;;;;15.43;100.00;94964.16;5032863;28;20040;-81
2023/09/27 01:10:32;;;;;;;46.25;20.92;;;;;;;15.51;100.00;94957.47;5050032;28;20037;-81
2023/09/27 01:12:58;;;;;;;37.00;20.70;;;;;;;15.47;100.00;94959.09;5034403;28;20419;-81
2023/09/27 01:15:23;;;;;;;41.78;21.55;;;;;;;15.62;100.00;94958.88;5033747;28;20034;-81
2023/09/27 01:17:56;;;;;;;45.03;21.88;;;;;;;15.59;100.00;94950.78;5049734;28;20061;-81
2023/09/27 01:20:22;;;;;;;45.90;20.23;;;;;;;15.66;100.00;94951.19;5033533;28;20469;-81
2023/09/27 01:22:58;;;;;;;38.33;20.73;;;;;;;15.59;100.00;94945.50;5050270;28;20083;-81
2023/09/27 01:25:27;;;;;;;45.00;21.05;;;;;;;15.59;100.00;94940.97;5050024;28;20043;-81
2023/09/27 01:28:11;;;;;;;36.30;19.80;;;;;;;15.60;100.00;94947.06;5034275;28;20037;-81
2023/09/27 01:30:38;;;;;;;37.92;21.17;;;;;;;15.56;100.00;94941.56;5033193;28;20087;-81
2023/09/27 01:33:06;;;;;;;35.88;20.75;;;;;;;15.53;100.00;94942.91;5050061;28;20029;-81
2023/09/27 01:35:33;;;;;;;41.38;20.85;;;;;;;15.50;100.00;94938.19;5063160;28;20087;-81
2023/09/27 01:37:58;;;;;;;40.28;21.30;;;;;;;15.41;100.00;94945.16;5052730;28;20027;-81
2023/09/27 01:40:30;;;;;;;40.10;22.50;;;;;;;15.34;100.00;94942.88;5053185;28;20025;-81
2023/09/27 01:42:57;;;;;;;44.15;21.15;;;;;;;15.37;100.00;94944.97;5053506;28;20033;-81
2023/09/27 01:45:23;;;;;;;44.03;21.05;;;;;;;15.35;100.00;94947.09;5054213;28;20036;-81
2023/09/27 01:47:49;;;;;;;41.30;21.08;;;;;;;15.41;100.00;94948.59;5052577;28;20048;-81
2023/09/27 01:50:14;;;;;;;43.92;21.08;;;;;;;15.36;100.00;94943.41;5053120;28;20032;-81
2023/09/27 01:52:40;;;;;;;41.95;22.05;;;;;;;15.38;100.00;94948.38;5053180;28;20033;-81
2023/09/27 01:55:05;;;;;;;40.38;20.65;;;;;;;15.35;100.00;94944.47;5055103;28;20365;-81
2023/09/27 01:57:31;;;;;;;39.63;21.27;;;;;;;15.34;100.00;94939.47;5056219;28;20634;-81
2023/09/27 01:59:56;;;;;;;34.58;19.48;;;;;;;15.20;100.00;94939.34;5057741;28;20036;-81
2023/09/27 02:02:22;;;;;;;34.72;19.50;;;;;;;15.17;100.00;94943.34;5056652;28;20029;-81
2023/09/27 02:04:47;;;;;;;37.60;20.38;;;;;;;15.08;100.00;94934.47;5056451;28;20036;-81
2023/09/27 02:07:12;;;;;;;34.00;20.23;;;;;;;15.07;100.00;94927.63;5057061;28;20060;-81
2023/09/27 02:09:38;;;;;;;34.13;19.98;;;;;;;15.12;100.00;94936.28;5040241;28;20048;-81
2023/09/27 02:12:04;;;;;;;38.13;20.30;;;;;;;15.11;100.00;94928.63;5056043;28;20115;-81
2023/09/27 02:14:29;;;;;;;35.88;19.88;;;;;;;15.02;100.00;94925.06;5063328;28;20115;-81
2023/09/27 02:16:55;;;;;;;39.00;20.23;;;;;;;15.08;100.00;94924.72;5061843;28;20033;-81
2023/09/27 02:19:20;;;;;;;37.50;19.63;;;;;;;15.01;100.00;94926.91;5035667;28;20102;-81
2023/09/27 02:21:46;;;;;;;37.70;19.13;;;;;;;15.05;100.00;94925.25;5035642;28;20091;-81
2023/09/27 02:24:11;;;;;;;36.30;21.00;;;;;;;14.94;100.00;94929.09;5035751;28;20355;-81
2023/09/27 02:26:37;;;;;;;43.38;20.95;;;;;;;14.93;100.00;94924.88;5019099;28;20045;-82
2023/09/27 02:29:02;;;;;;;41.95;21.52;;;;;;;14.91;100.00;94927.78;5035530;28;20111;-82
2023/09/27 02:31:28;;;;;;;38.67;21.25;;;;;;;14.91;100.00;94934.91;5035610;28;20727;-82
2023/09/27 02:33:53;;;;;;;43.78;20.83;;;;;;;14.94;100.00;94926.47;5036928;28;20052;-81
2023/09/27 02:36:19;;;;;;;41.35;20.65;;;;;;;14.89;100.00;94929.13;5036288;28;20068;-81
2023/09/27 02:38:44;;;;;;;35.35;20.40;;;;;;;14.88;100.00;94927.56;5019479;28;20120;-82
2023/09/27 02:41:09;;;;;;;49.83;22.17;;;;;;;14.87;100.00;94926.78;5035977;28;20040;-82
2023/09/27 02:43:35;;;;;;;43.20;21.48;;;;;;;14.79;100.00;94935.31;5019443;28;20116;-82
2023/09/27 02:46:01;;;;;;;56.10;21.55;;;;;;;14.77;100.00;94929.53;5037299;28;20358;-81
2023/09/27 02:48:26;;;;;;;41.33;21.08;;;;;;;14.74;100.00;94932.72;5035514;28;20134;-81
2023/09/27 02:50:58;;;;;;;40.50;21.73;;;;;;;14.74;100.00;94930.88;5036995;28;20037;-81
2023/09/27 02:53:23;;;;;;;45.55;22.98;;;;;;;14.74;100.00;94925.59;5035829;28;20033;-81
2023/09/27 02:55:49;;;;;;;43.85;20.83;;;;;;;14.74;100.00;94922.94;5019293;28;20036;-82
2023/09/27 02:58:15;;;;;;;41.20;22.13;;;;;;;14.74;100.00;94938.00;5035093;28;20033;-81
2023/09/27 03:00:41;;;;;;;42.67;22.08;;;;;;;14.75;100.00;94935.06;5035496;28;20120;-81
2023/09/27 03:03:07;;;;;;;44.90;22.40;;;;;;;14.62;100.00;94930.44;5036782;28;20099;-81
2023/09/27 03:05:35;;;;;;;40.58;20.85;;;;;;;14.63;100.00;94937.28;5018418;28;20035;-81
2023/09/27 03:08:02;;;;;;;38.30;21.33;;;;;;;14.60;100.00;94938.63;5035180;28;20506;-81
2023/09/27 03:10:28;;;;;;;45.17;22.77;;;;;;;14.64;100.00;94933.59;5048182;28;20039;-81
2023/09/27 03:12:54;;;;;;;46.85;22.70;;;;;;;14.68;100.00;94921.41;5055797;28;20037;-82
2023/09/27 03:15:19;;;;;;;40.83;22.67;;;;;;;14.64;100.00;94928.31;5038715;28;20037;-81
2023/09/27 03:17:47;;;;;;;42.10;22.60;;;;;;;14.66;100.00;94928.81;5038267;28;20473;-82
2023/09/27 03:20:16;;;;;;;45.10;22.55;;;;;;;14.72;100.00;94927.72;5054510;28;20036;-81
2023/09/27 03:22:48;;;;;;;45.20;23.77;;;;;;;14.66;100.00;94936.75;5054929;28;20536;-81
2023/09/27 03:25:16;;;;;;;50.05;23.60;;;;;;;14.65;100.00;94935.16;5054730;28;20039;-81
2023/09/27 03:27:42;;;;;;;41.20;22.02;;;;;;;14.60;100.00;94936.00;5054538;28;20029;-82
2023/09/27 03:30:07;;;;;;;44.28;24.48;;;;;;;14.57;100.00;94939.19;5054606;28;20040;-81
2023/09/27 03:32:33;;;;;;;37.85;21.08;;;;;;;14.52;100.00;94936.59;5055599;28;20473;-81
2023/09/27 03:35:01;;;;;;;48.60;22.77;;;;;;;14.54;100.00;94937.88;5037517;28;20044;-81
2023/09/27 03:37:27;;;;;;;42.88;23.10;;;;;;;14.57;100.00;94937.34;5038209;28;20430;-81
2023/09/27 03:39:52;;;;;;;45.08;23.00;;;;;;;14.44;100.00;94940.63;5038345;28;20059;-81
2023/09/27 03:42:22;;;;;;;42.55;23.27;;;;;;;14.41;100.00;94944.59;5054518;28;20029;-81
2023/09/27 03:44:48;;;;;;;42.40;22.90;;;;;;;14.43;100.00;94939.03;5054628;28;20032;-81
2023/09/27 03:47:14;;;;;;;41.78;22.70;;;;;;;14.49;100.00;94931.88;5054195;28;20033;-81
2023/09/27 03:49:40;;;;;;;39.63;22.50;;;;;;;14.40;100.00;94931.69;5038016;28;20036;-81
2023/09/27 03:52:07;;;;;;;54.88;23.40;;;;;;;14.41;100.00;94935.91;5038031;28;20033;-81
2023/09/27 03:54:32;;;;;;;43.53;23.50;;;;;;;14.41;100.00;94931.41;5054382;28;20029;-81
2023/09/27 03:56:58;;;;;;;45.90;23.13;;;;;;;14.39;100.00;94930.91;5054142;28;20036;-81
2023/09/27 03:59:24;;;;;;;49.33;25.08;;;;;;;14.40;100.00;94929.06;5037890;28;20054;-81
2023/09/27 04:01:49;;;;;;;58.92;26.42;;;;;;;14.39;100.00;94930.91;5037833;28;20354;-81
2023/09/27 04:04:15;;;;;;;48.72;24.42;;;;;;;14.35;100.00;94929.13;5055402;28;20430;-81
2023/09/27 04:06:49;;;;;;;44.58;23.50;;;;;;;14.37;100.00;94926.97;5053861;28;20139;-81
2023/09/27 04:09:15;;;;;;;44.13;24.25;;;;;;;14.35;100.00;94924.63;5054165;28;20458;-81
2023/09/27 04:11:40;;;;;;;55.28;25.02;;;;;;;14.36;100.00;94925.41;5053984;28;20100;-81
2023/09/27 04:14:05;;;;;;;50.95;25.10;;;;;;;14.35;100.00;94923.84;5047372;28;20426;-81
2023/09/27 04:16:31;;;;;;;50.60;24.63;;;;;;;14.32;100.00;94924.38;5018235;28;20025;-81
2023/09/27 04:18:57;;;;;;;49.75;24.88;;;;;;;14.26;100.00;94921.78;5033776;28;20037;-81
2023/09/27 04:21:27;;;;;;;48.92;25.02;;;;;;;14.25;100.00;94927.31;5034172;28;20033;-81
2023/09/27 04:23:56;;;;;;;44.17;23.85;;;;;;;14.22;100.00;94931.31;5053147;28;20031;-81
2023/09/27 04:26:23;;;;;;;41.55;22.98;;;;;;;14.32;100.00;94924.38;5037489;28;20033;-81
2023/09/27 04:28:50;;;;;;;50.58;24.67;;;;;;;14.25;100.00;94922.06;5053504;28;20036;-81
2023/09/27 04:31:16;;;;;;;45.58;24.08;;;;;;;14.25;100.00;94924.69;5053670;28;20377;-81
2023/09/27 04:33:44;;;;;;;47.88;24.52;;;;;;;14.23;100.00;94930.25;5035256;28;20028;-82
2023/09/27 04:36:15;;;;;;;48.08;24.23;;;;;;;14.32;100.00;94927.00;5037599;28;20021;-82
2023/09/27 04:38:41;;;;;;;46.03;23.52;;;;;;;14.32;100.00;94921.75;5055075;28;20084;-82
2023/09/27 04:41:07;;;;;;;44.30;23.83;;;;;;;14.23;100.00;94916.28;5053983;28;20074;-82
2023/09/27 04:43:33;;;;;;;44.53;22.25;;;;;;;14.21;100.00;94935.00;5054243;28;20033;-82
2023/09/27 04:45:58;;;;;;;48.67;24.90;;;;;;;14.23;100.00;94937.34;5037352;28;20151;-82
2023/09/27 04:48:24;;;;;;;47.95;23.30;;;;;;;14.20;100.00;94930.81;5053681;28;20033;-82
2023/09/27 04:50:50;;;;;;;48.05;25.00;;;;;;;14.22;100.00;94933.94;5053966;28;20037;-82
2023/09/27 04:53:15;;;;;;;49.17;23.38;;;;;;;14.21;100.00;94939.50;5053896;28;20048;-82
2023/09/27 04:55:41;;;;;;;59.33;24.88;;;;;;;14.13;100.00;94943.50;5053660;28;20041;-82
2023/09/27 04:58:06;;;;;;;45.50;24.38;;;;;;;14.25;100.00;94938.66;5053532;28;20029;-82
2023/09/27 05:00:32;;;;;;;42.28;23.58;;;;;;;14.23;100.00;94937.34;5053242;28;20035;-81
2023/09/27 05:02:57;;;;;;;49.70;25.55;;;;;;;14.22;100.00;94947.13;5053539;28;20409;-81
2023/09/27 05:05:23;;;;;;;49.50;23.10;;;;;;;14.19;100.00;94947.66;5053240;28;20037;-82
2023/09/27 05:07:48;;;;;;;52.83;25.25;;;;;;;14.18;100.00;94937.41;5054486;28;20481;-82
2023/09/27 05:10:14;;;;;;;46.67;23.35;;;;;;;14.22;100.00;94936.59;5053795;28;20025;-82
2023/09/27 05:12:39;;;;;;;54.15;24.70;;;;;;;14.26;100.00;94948.16;5053656;28;20029;-81
2023/09/27 05:15:06;;;;;;;50.22;24.02;;;;;;;14.23;100.00;94940.78;5053526;28;20029;-81
2023/09/27 05:17:32;;;;;;;48.42;23.02;;;;;;;14.30;100.00;94944.94;5053321;28;20090;-82
2023/09/27 05:19:57;;;;;;;47.50;22.38;;;;;;;14.32;100.00;94945.47;5051866;28;20389;-82
2023/09/27 05:22:23;;;;;;;44.47;22.60;;;;;;;14.30;100.00;94948.38;5054698;28;20124;-81
2023/09/27 05:24:49;;;;;;;47.80;23.17;;;;;;;14.28;100.00;94958.41;5053312;28;20477;-81
2023/09/27 05:27:15;;;;;;;46.72;22.52;;;;;;;14.30;100.00;94966.03;5053335;28;20061;-81
2023/09/27 05:29:40;;;;;;;43.85;24.67;;;;;;;14.26;100.00;94955.25;5042808;28;20464;-81
2023/09/27 05:32:05;;;;;;;43.47;22.02;;;;;;;14.31;100.00;94968.41;5037565;28;20029;-81
2023/09/27 05:34:31;;;;;;;56.00;24.27;;;;;;;14.36;100.00;94968.34;5038429;28;20029;-81
2023/09/27 05:36:59;;;;;;;41.80;22.02;;;;;;;14.42;100.00;94967.28;5038308;28;20031;-81
2023/09/27 05:39:25;;;;;;;40.78;22.23;;;;;;;14.60;100.00;94964.19;5037188;28;20029;-81
2023/09/27 05:41:51;;;;;;;46.35;21.95;;;;;;;14.67;100.00;94964.69;5037169;28;20041;-81
2023/09/27 05:44:16;;;;;;;48.00;22.88;;;;;;;14.66;100.00;94963.09;5037169;28;20718;-81
2023/09/27 05:46:43;;;;;;;49.58;23.88;;;;;;;14.76;100.00;94970.16;5037250;28;20152;-81
2023/09/27 05:49:10;;;;;;;44.60;23.13;;;;;;;14.78;100.00;94973.31;5038148;28;20050;-81
2023/09/27 05:51:36;;;;;;;50.00;23.25;;;;;;;14.81;100.00;94976.19;5037030;28;20051;-81
2023/09/27 05:54:02;;;;;;;41.55;20.63;;;;;;;14.93;100.00;94972.38;5038175;28;20112;-81
2023/09/27 05:56:28;;;;;;;40.05;22.38;;;;;;;14.98;100.00;94967.03;5036782;28;20033;-81
2023/09/27 05:58:53;;;;;;;41.33;21.83;;;;;;;14.99;100.00;94965.97;5036767;28;20083;-81
2023/09/27 06:01:19;;;;;;;35.72;19.40;;;;;;;15.09;100.00;94968.50;5036762;28;20021;-81
2023/09/27 06:03:49;;;;;;;40.05;21.70;;;;;;;15.20;100.00;94971.81;5036750;28;20087;-81
2023/09/27 06:06:14;;;;;;;38.33;20.02;;;;;;;15.33;100.00;94974.84;5020465;28;20029;-81
2023/09/27 06:08:40;;;;;;;41.20;20.88;;;;;;;15.39;100.00;94973.69;5036462;28;20030;-81
2023/09/27 06:11:07;;;;;;;43.20;21.80;;;;;;;15.43;100.00;94979.22;5020150;28;20029;-81
2023/09/27 06:13:32;;;;;;;43.13;20.80;;;;;;;15.52;100.00;94977.53;5020127;28;20506;-81
2023/09/27 06:16:01;;;;;;;41.85;20.70;;;;;;;15.58;100.00;94976.38;5036201;28;20171;-81
2023/09/27 06:18:27;;;;;;;38.97;20.15;;;;;;;15.76;100.00;94976.69;5036124;28;20062;-81
2023/09/27 06:20:52;;;;;;;37.22;18.83;;;;;;;15.86;100.00;94986.34;5020220;28;20025;-81
2023/09/27 06:23:19;;;;;;;40.15;20.13;;;;;;;15.95;100.00;94988.09;5037478;28;20026;-81
2023/09/27 06:25:46;;;;;;;41.25;20.65;;;;;;;15.99;100.00;94990.16;5037461;28;20053;-81
2023/09/27 06:28:13;;;;;;;33.08;17.95;;;;;;;16.14;100.00;94994.41;5036101;28;20029;-81
2023/09/27 06:30:40;;;;;;;35.58;18.63;;;;;;;16.28;100.00;95000.56;5020007;28;20025;-81
2023/09/27 06:33:06;;;;;;;39.63;17.08;;;;;;;16.39;100.00;94995.91;5036199;28;20033;-81
2023/09/27 06:35:32;;;;;;;31.70;17.48;;;;;;;16.46;100.00;95004.25;5037662;28;20601;-81
2023/09/27 06:38:00;;;;;;;33.05;16.90;;;;;;;16.61;100.00;95005.06;5037180;28;20371;-81
2023/09/27 06:40:26;;;;;;;35.22;16.75;;;;;;;16.53;100.00;95009.16;5035506;28;20615;-81
2023/09/27 06:42:52;;;;;;;27.98;15.55;;;;;;;16.85;100.00;95007.59;5035792;28;20083;-81
2023/09/27 06:45:18;;;;;;;26.02;15.52;;;;;;;16.88;100.00;95011.50;5035832;28;20033;-81
2023/09/27 06:47:45;;;;;;;35.17;16.02;;;;;;;16.71;100.00;95009.41;5035754;28;20025;-81
2023/09/27 06:50:14;;;;;;;27.75;15.90;;;;;;;16.66;100.00;95008.44;5036053;28;20463;-81
2023/09/27 06:52:40;;;;;;;30.77;15.98;;;;;;;16.79;100.00;95009.56;5035703;28;20025;-81
2023/09/27 06:55:13;;;;;;;34.40;17.08;;;;;;;16.78;100.00;95018.53;5035789;28;20022;-81
2023/09/27 06:57:44;;;;;;;30.45;15.48;;;;;;;16.81;100.00;95017.19;5035647;28;20018;-81
2023/09/27 07:00:18;;;;;;;25.77;16.02;;;;;;;16.87;100.00;95020.53;5019483;28;20040;-81
2023/09/27 07:02:47;;;;;;;28.10;14.82;;;;;;;17.06;100.00;95023.16;5035679;28;20793;-81
2023/09/27 07:05:14;;;;;;;22.70;13.60;;;;;;;17.07;100.00;95022.88;5035491;28;20034;-81
2023/09/27 07:07:39;;;;;;;29.35;15.57;;;;;;;17.20;100.00;95020.50;5035352;28;20079;-81
2023/09/27 07:10:06;;;;;;;37.50;15.70;;;;;;;17.23;100.00;95020.72;5035295;28;20382;-81
2023/09/27 07:12:33;;;;;;;27.08;13.93;;;;;;;17.37;100.00;95026.03;5035378;28;20424;-81
2023/09/27 07:14:58;;;;;;;25.85;14.70;;;;;;;17.49;100.00;95020.22;5035370;28;20025;-81
2023/09/27 07:17:25;;;;;;;30.40;16.15;;;;;;;17.26;100.00;95018.56;5035248;28;20026;-81
2023/09/27 07:19:53;;;;;;;30.30;14.43;;;;;;;17.37;100.00;95025.22;5035598;28;20319;-81
2023/09/27 07:22:19;;;;;;;22.95;12.77;;;;;;;17.51;100.00;95012.00;5019079;28;20065;-81
2023/09/27 07:24:45;;;;;;;25.27;14.00;;;;;;;17.47;100.00;95017.09;5035152;28;20060;-81
2023/09/27 07:27:11;;;;;;;27.48;14.85;;;;;;;17.62;100.00;95013.34;5034980;28;20033;-81
2023/09/27 07:29:36;;;;;;;29.60;14.75;;;;;;;17.65;100.00;95017.28;5018713;28;20029;-81
2023/09/27 07:32:04;;;;;;;30.35;15.10;;;;;;;17.64;100.00;95008.53;5035068;28;20068;-81
2023/09/27 07:34:30;;;;;;;27.95;13.50;;;;;;;17.81;100.00;95007.16;5035032;28;20055;-81
2023/09/27 07:36:56;;;;;;;32.28;14.32;;;;;;;17.85;100.00;95017.94;5035070;28;20051;-82
2023/09/27 07:39:22;;;;;;;26.73;13.55;;;;;;;17.99;100.00;95016.03;5034799;28;20409;-81
2023/09/27 07:41:49;;;;;;;23.40;12.60;;;;;;;18.00;100.00;95012.28;5036145;28;20032;-81
2023/09/27 07:44:15;;;;;;;23.25;11.85;;;;;;;18.23;100.00;95022.97;5034976;28;20034;-81
2023/09/27 07:46:40;;;;;;;23.90;11.52;;;;;;;18.46;100.00;95023.00;5034694;28;20033;-81
2023/09/27 07:49:06;;;;;;;27.67;12.00;;;;;;;18.63;100.00;95035.59;5034641;28;20430;-81
2023/09/27 07:51:31;;;;;;;26.10;11.75;;;;;;;18.60;100.00;95028.25;5035441;28;20036;-81
2023/09/27 07:53:57;;;;;;;23.30;11.07;;;;;;;18.78;100.00;95031.78;5035964;28;20435;-81
2023/09/27 07:56:25;;;;;;;21.38;11.43;;;;;;;18.78;100.00;95035.22;5035821;28;20079;-82
2023/09/27 07:58:52;;;;;;;31.20;13.93;;;;;;;18.19;100.00;95040.56;5035887;28;20048;-81
2023/09/27 08:01:20;;;;;;;25.45;12.73;;;;;;;17.94;100.00;95029.41;5034500;28;20032;-81
2023/09/27 08:03:48;;;;;;;41.05;14.48;;;;;;;18.20;100.00;95039.50;5034498;28;20328;-81
2023/09/27 08:06:16;;;;;;;31.42;12.38;;;;;;;18.29;100.00;95039.56;5034307;28;20029;-81
2023/09/27 08:08:41;;;;;;;31.83;14.60;;;;;;;18.36;100.00;95035.41;5034232;28;20052;-81
2023/09/27 08:11:07;;;;;;;25.02;12.57;;;;;;;18.48;100.00;95032.22;5018101;28;20021;-81
2023/09/27 08:13:32;;;;;;;30.88;14.38;;;;;;;18.04;100.00;95025.78;5034103;28;20033;-81
2023/09/27 08:15:58;;;;;;;28.38;13.05;;;;;;;18.30;100.00;95023.34;5035477;28;20021;-81
2023/09/27 08:18:25;;;;;;;26.20;12.82;;;;;;;18.49;100.00;95033.00;5034110;28;20415;-81
2023/09/27 08:20:52;;;;;;;29.90;12.88;;;;;;;18.49;100.00;95035.66;5034331;28;20111;-81
2023/09/27 08:23:18;;;;;;;16.83;10.20;;;;;;;18.65;100.00;95041.41;5034058;28;20470;-81
2023/09/27 08:25:43;;;;;;;28.25;13.27;;;;;;;18.67;100.00;95023.31;5034004;28;20025;-81
2023/09/27 08:28:09;;;;;;;29.60;13.43;;;;;;;18.47;100.00;95028.00;5035195;28;20029;-81
2023/09/27 08:30:35;;;;;;;24.02;12.57;;;;;;;18.68;100.00;95027.53;5034041;28;20030;-81
2023/09/27 08:33:01;;;;;;;23.20;11.80;;;;;;;18.68;100.00;95027.53;5034316;28;20370;-81
2023/09/27 08:35:28;;;;;;;25.92;11.05;;;;;;;18.71;100.00;95028.78;5035184;28;20034;-81
2023/09/27 08:37:53;;;;;;;25.23;10.52;;;;;;;18.59;100.00;95034.63;5035072;28;20390;-81
2023/09/27 08:40:19;;;;;;;30.63;12.85;;;;;;;18.55;100.00;95037.09;5017250;28;20044;-81
2023/09/27 08:42:50;;;;;;;24.48;12.18;;;;;;;18.48;100.00;95034.09;5033879;28;20037;-81
2023/09/27 08:45:16;;;;;;;32.03;12.88;;;;;;;18.50;100.00;95032.69;5033928;28;20033;-81
2023/09/27 08:47:44;;;;;;;29.08;12.15;;;;;;;18.55;100.00;95034.44;5034074;28;20045;-81
2023/09/27 08:50:13;;;;;;;29.70;11.77;;;;;;;18.75;100.00;95033.19;5033530;28;20036;-81
2023/09/27 08:52:44;;;;;;;22.45;11.40;;;;;;;18.90;100.00;95029.38;5033647;28;20036;-81
2023/09/27 08:55:09;;;;;;;18.10;10.00;;;;;;;18.72;100.00;95027.69;5050471;28;20041;-81
2023/09/27 08:57:36;;;;;;;26.50;10.05;;;;;;;18.73;100.00;95024.75;5033490;28;20434;-82
2023/09/27 09:00:06;;;;;;;24.52;11.73;;;;;;;18.58;100.00;95033.06;5017607;28;20128;-81
2023/09/27 09:02:32;;;;;;;21.10;11.30;;;;;;;18.59;100.00;95026.69;5033568;28;20430;-81
2023/09/27 09:04:58;;;;;;;24.60;12.48;;;;;;;18.33;100.00;95019.31;5033115;28;20132;-81
2023/09/27 09:07:23;;;;;;;19.85;11.38;;;;;;;18.59;100.00;95026.69;5033410;28;20091;-81
2023/09/27 09:09:49;;;;;;;22.95;10.85;;;;;;;18.87;100.00;95022.03;5033527;28;20060;-81
2023/09/27 09:12:14;;;;;;;22.83;9.38;;;;;;;18.96;100.00;95014.09;5034522;28;20102;-81
2023/09/27 09:14:49;;;;;;;18.02;8.90;;;;;;;19.46;100.00;95012.28;5033345;28;20068;-81
2023/09/27 09:17:18;;;;;;;23.63;7.97;;;;;;;19.71;100.00;95010.03;5018152;28;20053;-81
2023/09/27 09:19:45;;;;;;;14.43;6.78;;;;;;;20.06;100.00;95010.09;5033274;28;20034;-81
2023/09/27 09:22:12;;;;;;;18.48;7.28;;;;;;;20.10;100.00;95011.03;5017074;28;20148;-81
2023/09/27 09:24:45;;;;;;;16.38;7.78;;;;;;;20.27;100.00;95012.91;5033588;28;20351;-81
2023/09/27 09:27:13;;;;;;;24.10;8.10;;;;;;;20.30;100.00;95014.16;5033289;28;20033;-82
2023/09/27 09:29:49;;;;;;;20.15;7.45;;;;;;;20.25;100.00;95007.13;5033153;28;20045;-81
2023/09/27 09:32:17;;;;;;;18.48;7.28;;;;;;;20.54;100.00;95015.56;5033407;28;20446;-82
2023/09/27 09:34:44;;;;;;;28.00;7.93;;;;;;;20.44;100.00;95016.66;5033335;28;20446;-81
2023/09/27 09:37:17;;;;;;;23.02;7.95;;;;;;;20.49;100.00;95019.19;5033464;28;20034;-81
2023/09/27 09:39:43;;;;;;;20.10;7.70;;;;;;;20.76;100.00;95023.34;5033318;28;20446;-82
2023/09/27 09:42:08;;;;;;;14.25;6.80;;;;;;;20.75;100.00;95016.47;5017214;28;20128;-82
2023/09/27 09:44:34;;;;;;;16.33;6.45;;;;;;;21.09;100.00;95016.72;5034464;28;20029;-82
2023/09/27 09:47:10;;;;;;;17.42;6.10;;;;;;;21.22;100.00;95019.50;5033140;28;20044;-82
2023/09/27 09:49:35;;;;;;;13.88;5.90;;;;;;;21.31;100.00;95020.28;5017099;28;20044;-82
2023/09/27 09:52:03;;;;;;;13.65;5.85;;;;;;;21.19;100.00;95020.94;5033265;28;20038;-82
2023/09/27 09:54:41;;;;;;;22.52;6.68;;;;;;;21.26;100.00;95018.56;5033113;28;20431;-82
2023/09/27 09:57:07;;;;;;;13.45;5.90;;;;;;;21.25;100.00;95017.00;5034588;28;20227;-82
2023/09/27 09:59:57;;;;;;;15.82;6.25;;;;;;;21.17;100.00;95009.81;5034332;28;20509;-82
2023/09/27 10:02:33;;;;;;;13.82;5.88;;;;;;;21.29;100.00;95012.59;5049982;28;20033;-82
2023/09/27 10:04:59;;;;;;;13.80;5.72;;;;;;;21.25;100.00;95017.00;5033402;28;20065;-82
2023/09/27 10:07:25;;;;;;;13.07;5.13;;;;;;;21.36;100.00;95011.28;5032879;28;20068;-82
2023/09/27 10:09:52;;;;;;;10.43;5.20;;;;;;;21.45;100.00;94996.84;5033042;28;20124;-82
2023/09/27 10:12:19;;;;;;;13.07;5.63;;;;;;;21.28;100.00;95000.38;5033013;28;20033;-82
2023/09/27 10:14:45;;;;;;;18.88;5.88;;;;;;;21.09;100.00;95002.63;5033517;28;20134;-82
2023/09/27 10:17:21;;;;;;;23.85;6.55;;;;;;;21.27;100.00;95008.66;5036553;28;20021;-82
2023/09/27 10:20:13;;;;;;;16.23;5.15;;;;;;;21.66;100.00;95001.47;5020077;28;20029;-82
2023/09/27 10:22:40;;;;;;;11.77;4.88;;;;;;;21.78;100.00;94994.66;5036536;28;20030;-82
2023/09/27 10:25:32;;;;;;;10.75;4.90;;;;;;;21.94;100.00;94998.31;5036743;28;20095;-82
2023/09/27 10:28:12;;;;;;;12.30;5.05;;;;;;;21.84;96.90;94991.47;5037475;28;20033;-82
2023/09/27 10:30:40;;;;;;;23.77;5.20;;;;;;;21.68;100.00;94985.91;5037506;28;20358;-82
2023/09/27 10:33:15;;;;;;;16.60;5.68;;;;;;;21.70;100.00;94994.38;5036363;28;20066;-82
2023/09/27 10:35:44;;;;;;;16.88;5.47;;;;;;;21.43;100.00;94988.38;5037497;28;20033;-82
2023/09/27 10:38:10;;;;;;;10.95;5.28;;;;;;;21.22;100.00;95001.63;5037097;28;20037;-82
2023/09/27 10:40:48;;;;;;;13.27;5.15;;;;;;;21.24;100.00;94994.13;5036127;28;20351;-81
2023/09/27 10:43:32;;;;;;;17.02;4.97;;;;;;;21.56;100.00;94993.78;5036065;28;20061;-82
2023/09/27 10:45:58;;;;;;;22.00;5.38;;;;;;;21.69;100.00;94992.03;5037217;28;20044;-82
2023/09/27 10:48:24;;;;;;;14.07;5.95;;;;;;;21.96;95.57;94990.00;5035656;28;20037;-82
2023/09/27 10:50:55;;;;;;;17.38;5.10;;;;;;;21.67;94.22;94980.91;5037100;28;20030;-82
2023/09/27 10:53:21;;;;;;;13.57;5.35;;;;;;;21.84;95.42;94986.13;5035858;28;20060;-82
2023/09/27 10:55:46;;;;;;;13.43;4.70;;;;;;;22.34;95.57;94989.03;5035743;28;20450;-82
2023/09/27 10:58:18;;;;;;;12.45;4.88;;;;;;;22.14;92.76;94979.94;5035669;28;20076;-82
2023/09/27 11:01:03;;;;;;;20.85;5.30;;;;;;;21.95;90.39;94983.06;5035871;28;20033;-82
2023/09/27 11:03:33;;;;;;;11.80;4.85;;;;;;;22.58;84.78;94979.59;5035767;28;20036;-82
2023/09/27 11:06:11;;;;;;;11.38;4.30;;;;;;;22.71;91.66;94972.41;5035662;28;20025;-82
2023/09/27 11:08:37;;;;;;;10.02;5.05;;;;;;;22.54;85.42;94970.69;5035409;28;20072;-82
2023/09/27 11:11:06;;;;;;;14.32;5.55;;;;;;;22.23;81.56;94972.66;5035502;28;20061;-81
2023/09/27 11:13:32;;;;;;;21.33;4.88;;;;;;;22.34;82.82;94969.59;5035584;28;20029;-81